createdAt,value
2019-03-23T00:01:14.917Z,5.77
2019-03-23T00:03:41.762Z,6.12
2019-03-23T00:06:08.660Z,6.46
2019-03-23T00:08:35.680Z,6.31
2019-03-23T00:11:02.534Z,6.38
2019-03-23T00:13:29.509Z,6.16
2019-03-23T00:15:56.432Z,5.86
2019-03-23T00:18:23.301Z,6.24
2019-03-23T00:20:50.455Z,6.16
2019-03-23T00:23:17.310Z,5.78
2019-03-23T00:25:44.165Z,5.42
2019-03-23T00:28:11.046Z,5.87
2019-03-23T00:30:38.057Z,6.17
2019-03-23T00:33:05.130Z,5.86
2019-03-23T00:35:32.003Z,5.63
2019-03-23T00:37:58.817Z,5.91
2019-03-23T00:40:25.645Z,5.82
2019-03-23T00:42:52.884Z,5.90
2019-03-23T00:45:19.820Z,5.82
2019-03-23T00:47:46.662Z,6.10
2019-03-23T00:50:13.578Z,6.14
2019-03-23T00:52:40.307Z,6.02
2019-03-23T00:55:07.168Z,5.89
2019-03-23T00:57:35.589Z,6.10
2019-03-23T01:00:04.960Z,6.08
2019-03-23T01:02:31.837Z,5.87
2019-03-23T01:04:58.700Z,5.59
2019-03-23T01:07:25.526Z,5.82
2019-03-23T01:09:52.424Z,5.94
2019-03-23T01:12:19.306Z,5.86
2019-03-23T01:14:46.181Z,5.58
2019-03-23T01:17:13.058Z,5.63
2019-03-23T01:19:39.902Z,5.66
2019-03-23T01:22:06.848Z,5.51
2019-03-23T01:24:33.759Z,5.36
2019-03-23T01:27:00.644Z,5.36
2019-03-23T01:29:27.628Z,5.29
2019-03-23T01:31:54.484Z,5.36
2019-03-23T01:34:21.510Z,5.41
2019-03-23T01:36:48.470Z,5.41
2019-03-23T01:39:15.422Z,5.37
2019-03-23T01:41:42.401Z,5.33
2019-03-23T01:44:09.388Z,5.31
2019-03-23T01:46:36.240Z,5.46
2019-03-23T01:49:03.128Z,5.50
2019-03-23T01:51:29.998Z,5.42
2019-03-23T01:53:56.842Z,5.53
2019-03-23T01:56:23.810Z,5.58
2019-03-23T01:58:50.847Z,5.41
2019-03-23T02:01:17.825Z,5.56
2019-03-23T02:03:44.657Z,5.56
2019-03-23T02:06:11.648Z,4.93
2019-03-23T02:08:38.567Z,5.34
2019-03-23T02:11:05.387Z,5.08
2019-03-23T02:13:32.258Z,5.13
2019-03-23T02:15:59.154Z,5.13
2019-03-23T02:18:26.033Z,5.00
2019-03-23T02:20:52.934Z,4.85
2019-03-23T02:23:19.850Z,4.88
2019-03-23T02:25:46.707Z,5.14
2019-03-23T02:28:13.555Z,4.65
2019-03-23T02:30:40.892Z,4.94
2019-03-23T02:33:07.906Z,4.81
2019-03-23T02:35:36.418Z,5.00
2019-03-23T02:38:03.370Z,4.81
2019-03-23T02:40:30.214Z,4.69
2019-03-23T02:42:57.044Z,4.40
2019-03-23T02:45:23.937Z,4.67
2019-03-23T02:47:50.925Z,4.80
2019-03-23T02:50:17.868Z,4.91
2019-03-23T02:52:44.755Z,4.98
2019-03-23T02:55:11.639Z,4.73
2019-03-23T02:57:38.437Z,4.72
2019-03-23T03:00:09.014Z,4.88
2019-03-23T03:02:35.973Z,4.84
2019-03-23T03:05:05.668Z,4.77
2019-03-23T03:07:42.012Z,5.04
2019-03-23T03:10:01.349Z,4.93
2019-03-23T03:12:28.355Z,4.76
2019-03-23T03:14:55.286Z,4.76
2019-03-23T03:17:22.156Z,4.71
2019-03-23T03:19:49.088Z,4.70
2019-03-23T03:22:16.148Z,4.70
2019-03-23T03:24:43.055Z,4.47
2019-03-23T03:27:09.908Z,4.47
2019-03-23T03:29:36.972Z,4.58
2019-03-23T03:32:03.845Z,4.50
2019-03-23T03:34:31.103Z,4.12
2019-03-23T03:36:59.514Z,4.33
2019-03-23T03:39:26.417Z,4.42
2019-03-23T03:41:53.421Z,4.40
2019-03-23T03:44:20.290Z,4.02
2019-03-23T03:46:47.085Z,4.50
2019-03-23T03:49:13.971Z,4.63
2019-03-23T03:51:40.929Z,4.51
2019-03-23T03:54:07.642Z,4.55
2019-03-23T03:56:34.466Z,4.49
2019-03-23T03:59:01.411Z,4.56
2019-03-23T04:01:28.294Z,4.58
2019-03-23T04:03:55.113Z,4.37
2019-03-23T04:06:21.950Z,4.26
2019-03-23T04:08:48.835Z,4.00
2019-03-23T04:11:15.729Z,4.29
2019-03-23T04:13:42.545Z,4.28
2019-03-23T04:16:09.496Z,4.35
2019-03-23T04:18:36.370Z,4.36
2019-03-23T04:21:03.234Z,4.36
2019-03-23T04:23:30.160Z,4.37
2019-03-23T04:25:57.347Z,4.18
2019-03-23T04:28:24.270Z,4.32
2019-03-23T04:30:51.131Z,4.42
2019-03-23T04:33:17.987Z,4.46
2019-03-23T04:35:44.828Z,4.29
2019-03-23T04:38:22.158Z,4.47
2019-03-23T04:40:40.778Z,4.39
2019-03-23T04:43:07.681Z,4.45
2019-03-23T04:45:34.719Z,4.42
2019-03-23T04:48:01.596Z,4.68
2019-03-23T04:50:28.396Z,4.44
2019-03-23T04:52:55.251Z,4.35
2019-03-23T04:55:22.143Z,4.30
2019-03-23T04:57:48.996Z,4.52
2019-03-23T05:00:17.532Z,4.55
2019-03-23T05:02:44.370Z,4.48
2019-03-23T05:05:11.278Z,4.54
2019-03-23T05:07:39.064Z,4.51
2019-03-23T05:10:06.672Z,4.54
2019-03-23T05:12:33.578Z,4.64
2019-03-23T05:15:00.569Z,4.72
2019-03-23T05:17:27.631Z,4.76
2019-03-23T05:19:54.515Z,4.65
2019-03-23T05:22:21.989Z,4.83
2019-03-23T05:24:49.040Z,4.76
2019-03-23T05:27:15.815Z,4.67
2019-03-23T05:29:42.715Z,4.97
2019-03-23T05:32:09.641Z,4.86
2019-03-23T05:34:36.853Z,4.84
2019-03-23T05:37:05.015Z,4.83
2019-03-23T05:39:32.121Z,4.82
2019-03-23T05:41:58.987Z,4.85
2019-03-23T05:44:25.871Z,4.95
2019-03-23T05:46:54.379Z,4.99
2019-03-23T05:49:21.415Z,5.06
2019-03-23T05:51:48.289Z,4.97
2019-03-23T05:54:14.998Z,4.86
2019-03-23T05:56:41.973Z,4.99
2019-03-23T05:59:08.834Z,5.20
2019-03-23T06:01:35.816Z,4.95
2019-03-23T06:04:02.777Z,5.11
2019-03-23T06:06:29.605Z,5.29
2019-03-23T06:08:56.480Z,5.34
2019-03-23T06:11:23.386Z,5.19
2019-03-23T06:13:50.245Z,5.17
2019-03-23T06:16:17.987Z,5.25
2019-03-23T06:18:45.021Z,5.37
2019-03-23T06:21:11.783Z,5.48
2019-03-23T06:23:39.313Z,5.61
2019-03-23T06:26:06.481Z,5.54
2019-03-23T06:28:33.623Z,5.45
2019-03-23T06:31:00.440Z,5.57
2019-03-23T06:33:27.297Z,5.51
2019-03-23T06:35:54.265Z,5.64
2019-03-23T06:38:21.140Z,5.63
2019-03-23T06:40:48.013Z,5.58
2019-03-23T06:43:14.949Z,5.83
2019-03-23T06:45:41.829Z,5.69
2019-03-23T06:48:08.545Z,5.98
2019-03-23T06:50:35.602Z,5.77
2019-03-23T06:53:02.554Z,5.88
2019-03-23T06:55:29.457Z,5.93
2019-03-23T06:57:56.361Z,5.98
2019-03-23T07:00:23.356Z,6.05
2019-03-23T07:02:50.296Z,5.97
2019-03-23T07:05:17.101Z,6.06
2019-03-23T07:07:43.919Z,6.16
2019-03-23T07:10:13.535Z,6.50
2019-03-23T07:12:40.331Z,6.59
2019-03-23T07:15:19.472Z,6.34
2019-03-23T07:17:39.480Z,6.33
2019-03-23T07:20:10.995Z,6.15
2019-03-23T07:22:37.994Z,6.32
2019-03-23T07:25:08.658Z,6.64
2019-03-23T07:27:35.723Z,6.64
2019-03-23T07:30:08.753Z,6.54
2019-03-23T07:32:35.712Z,6.83
2019-03-23T07:35:03.473Z,6.90
2019-03-23T07:37:30.414Z,6.98
2019-03-23T07:39:57.730Z,7.22
2019-03-23T07:42:24.775Z,7.23
2019-03-23T07:44:51.668Z,7.12
2019-03-23T07:47:19.120Z,7.17
2019-03-23T07:49:46.144Z,7.29
2019-03-23T07:52:13.033Z,7.42
2019-03-23T07:54:39.960Z,7.16
2019-03-23T07:57:06.923Z,7.24
2019-03-23T07:59:33.908Z,7.55
2019-03-23T08:02:00.898Z,7.48
2019-03-23T08:04:27.733Z,7.31
2019-03-23T08:06:54.493Z,7.51
2019-03-23T08:09:23.473Z,7.65
2019-03-23T08:11:50.199Z,7.30
2019-03-23T08:14:17.099Z,7.62
2019-03-23T08:16:43.992Z,7.78
2019-03-23T08:19:10.956Z,7.57
2019-03-23T08:21:37.911Z,7.61
2019-03-23T08:24:04.762Z,7.77
2019-03-23T08:26:31.512Z,8.03
2019-03-23T08:28:58.404Z,7.98
2019-03-23T08:31:25.324Z,8.11
2019-03-23T08:33:55.564Z,8.28
2019-03-23T08:36:22.803Z,8.58
2019-03-23T08:38:51.649Z,8.67
2019-03-23T08:41:19.884Z,9.14
2019-03-23T08:43:46.725Z,8.81
2019-03-23T08:46:13.612Z,9.05
2019-03-23T08:48:40.669Z,9.17
2019-03-23T08:51:07.553Z,8.97
2019-03-23T08:53:34.558Z,8.97
2019-03-23T08:59:38.942Z,9.08
2019-03-23T09:02:05.903Z,9.20
2019-03-23T09:04:32.839Z,8.96
2019-03-23T09:06:59.660Z,9.01
2019-03-23T09:09:26.525Z,9.16
2019-03-23T09:11:53.547Z,9.15
2019-03-23T09:14:20.393Z,9.22
2019-03-23T09:16:47.295Z,9.45
2019-03-23T09:19:14.293Z,9.43
2019-03-23T09:21:41.146Z,9.99
2019-03-23T09:24:07.905Z,10.11
2019-03-23T09:26:35.221Z,10.13
2019-03-23T09:29:02.063Z,10.47
2019-03-23T09:31:28.923Z,11.45
2019-03-23T09:33:55.941Z,11.46
2019-03-23T09:36:23.210Z,11.30
2019-03-23T09:38:50.052Z,11.11
2019-03-23T09:41:16.974Z,11.28
2019-03-23T09:43:43.810Z,11.76
2019-03-23T09:46:10.821Z,11.97
2019-03-23T09:48:37.816Z,12.26
2019-03-23T09:51:04.686Z,12.77
2019-03-23T09:53:31.557Z,12.92
2019-03-23T09:55:58.627Z,13.31
2019-03-23T09:58:25.455Z,13.04
2019-03-23T10:00:52.374Z,13.42
2019-03-23T10:03:19.189Z,13.91
2019-03-23T10:05:46.060Z,14.27
2019-03-23T10:08:12.911Z,14.46
2019-03-23T10:10:40.207Z,14.47
2019-03-23T10:13:07.053Z,15.20
2019-03-23T10:15:33.918Z,15.20
2019-03-23T10:18:01.755Z,15.11
2019-03-23T10:20:30.906Z,15.51
2019-03-23T10:22:57.870Z,15.60
2019-03-23T10:25:24.746Z,15.52
2019-03-23T10:27:52.094Z,16.33
2019-03-23T10:30:19.242Z,16.15
2019-03-23T10:32:46.054Z,16.11
2019-03-23T10:35:12.974Z,16.38
2019-03-23T10:37:40.177Z,16.38
2019-03-23T10:40:08.735Z,16.64
2019-03-23T10:42:35.531Z,17.31
2019-03-23T10:45:05.315Z,17.18
2019-03-23T10:47:32.157Z,17.64
2019-03-23T10:49:59.106Z,18.05
2019-03-23T10:52:26.151Z,18.08
2019-03-23T10:54:52.966Z,17.40
2019-03-23T10:57:20.109Z,18.16
2019-03-23T10:59:47.014Z,18.64
2019-03-23T11:02:13.844Z,18.69
2019-03-23T11:04:40.701Z,18.91
2019-03-23T11:07:07.662Z,19.14
2019-03-23T11:09:34.673Z,19.54
2019-03-23T11:12:01.779Z,20.14
2019-03-23T11:14:28.721Z,19.89
2019-03-23T11:16:55.723Z,19.89
2019-03-23T11:19:25.644Z,20.82
2019-03-23T11:21:52.513Z,21.06
2019-03-23T11:24:20.710Z,21.54
2019-03-23T11:26:47.581Z,21.17
2019-03-23T11:29:14.448Z,22.01
2019-03-23T11:31:41.528Z,22.90
2019-03-23T11:34:17.507Z,22.65
2019-03-23T11:36:37.714Z,21.71
2019-03-23T11:39:05.758Z,22.64
2019-03-23T11:41:32.774Z,23.47
2019-03-23T11:43:59.600Z,23.85
2019-03-23T11:46:26.451Z,24.31
2019-03-23T11:48:53.306Z,24.82
2019-03-23T11:51:20.288Z,25.38
2019-03-23T11:53:47.310Z,24.76
2019-03-23T11:56:14.171Z,26.75
2019-03-23T11:58:41.205Z,26.94
2019-03-23T12:01:08.111Z,28.66
2019-03-23T12:03:34.992Z,28.81
2019-03-23T12:06:01.936Z,27.37
2019-03-23T12:08:28.812Z,28.82
2019-03-23T12:11:02.828Z,29.38
2019-03-23T12:13:24.363Z,29.60
2019-03-23T12:15:51.226Z,30.92
2019-03-23T12:18:18.144Z,29.23
2019-03-23T12:20:45.090Z,30.56
2019-03-23T12:23:11.958Z,29.39
2019-03-23T12:25:38.837Z,31.08
2019-03-23T12:28:05.816Z,32.05
2019-03-23T12:30:32.723Z,33.85
2019-03-23T12:32:59.672Z,34.79
2019-03-23T12:35:26.782Z,34.37
2019-03-23T12:37:53.690Z,34.32
2019-03-23T12:40:20.872Z,32.55
2019-03-23T12:42:47.878Z,33.91
2019-03-23T12:45:14.743Z,33.31
2019-03-23T12:47:41.713Z,33.82
2019-03-23T12:50:09.647Z,35.77
2019-03-23T12:52:36.582Z,32.88
2019-03-23T12:55:05.220Z,34.16
2019-03-23T12:57:32.100Z,33.36
2019-03-23T12:59:59.326Z,36.36
2019-03-23T13:02:26.217Z,33.48
2019-03-23T13:04:53.180Z,34.16
2019-03-23T13:07:20.083Z,36.32
2019-03-23T13:09:46.952Z,35.94
2019-03-23T13:12:13.824Z,35.27
2019-03-23T13:14:40.767Z,30.14
2019-03-23T13:17:07.622Z,35.54
2019-03-23T13:19:34.488Z,36.28
2019-03-23T13:22:01.439Z,34.96
2019-03-23T13:24:28.280Z,34.95
2019-03-23T13:26:55.183Z,35.01
2019-03-23T13:29:22.041Z,33.73
2019-03-23T13:31:49.013Z,35.48
2019-03-23T13:34:15.802Z,37.08
2019-03-23T13:36:42.734Z,38.36
2019-03-23T13:39:09.731Z,36.77
2019-03-23T13:41:47.780Z,37.08
2019-03-23T13:44:14.681Z,36.46
2019-03-23T13:46:41.531Z,35.45
2019-03-23T13:49:08.459Z,31.49
2019-03-23T13:51:35.366Z,32.42
2019-03-23T13:54:02.232Z,30.83
2019-03-23T13:56:29.749Z,28.08
2019-03-23T13:58:56.612Z,27.15
2019-03-23T14:01:23.721Z,24.69
2019-03-23T14:03:50.838Z,26.00
2019-03-23T14:06:17.780Z,25.73
2019-03-23T14:08:44.661Z,25.27
2019-03-23T14:11:11.714Z,24.70
2019-03-23T14:13:38.653Z,24.64
2019-03-23T14:16:05.591Z,22.62
2019-03-23T14:18:32.556Z,22.08
2019-03-23T14:20:59.493Z,21.78
2019-03-23T14:23:26.373Z,22.60
2019-03-23T14:25:53.650Z,23.18
2019-03-23T14:28:20.541Z,22.78
2019-03-23T14:30:47.395Z,22.27
2019-03-23T14:33:14.308Z,22.89
2019-03-23T14:35:41.134Z,22.20
2019-03-23T14:38:08.007Z,21.85
2019-03-23T14:40:34.991Z,21.56
2019-03-23T14:43:01.914Z,21.47
2019-03-23T14:45:28.878Z,21.82
2019-03-23T14:47:55.870Z,22.08
2019-03-23T14:50:22.934Z,22.15
2019-03-23T14:52:49.792Z,21.82
2019-03-23T14:55:16.698Z,22.14
2019-03-23T14:57:43.603Z,23.80
2019-03-23T15:00:10.479Z,24.50
2019-03-23T15:02:37.833Z,22.88
2019-03-23T15:05:05.988Z,21.22
2019-03-23T15:07:33.155Z,20.77
2019-03-23T15:10:00.316Z,20.72
2019-03-23T15:12:27.461Z,20.57
2019-03-23T15:14:54.199Z,20.46
2019-03-23T15:17:21.342Z,20.20
2019-03-23T15:19:48.267Z,20.30
2019-03-23T15:22:15.222Z,20.31
2019-03-23T15:24:42.845Z,20.22
2019-03-23T15:27:09.715Z,20.22
2019-03-23T15:29:36.763Z,20.46
2019-03-23T15:32:03.574Z,20.40
2019-03-23T15:34:30.557Z,20.40
2019-03-23T15:36:57.551Z,20.26
2019-03-23T15:39:24.362Z,20.26
2019-03-23T15:41:51.235Z,20.29
2019-03-23T15:44:18.213Z,19.94
2019-03-23T15:46:45.409Z,20.05
2019-03-23T15:49:12.247Z,20.10
2019-03-23T15:51:39.265Z,20.10
2019-03-23T15:54:06.077Z,19.71
2019-03-23T15:56:32.923Z,19.67
2019-03-23T15:58:59.800Z,19.43
2019-03-23T16:01:26.757Z,19.33
2019-03-23T16:03:53.655Z,19.28
2019-03-23T16:06:20.531Z,19.50
2019-03-23T16:08:47.421Z,19.68
2019-03-23T16:11:14.209Z,19.59
2019-03-23T16:13:41.268Z,19.47
2019-03-23T16:16:08.135Z,19.13
2019-03-23T16:18:35.026Z,19.04
2019-03-23T16:21:01.937Z,19.13
2019-03-23T16:23:28.845Z,19.11
2019-03-23T16:25:55.689Z,18.96
2019-03-23T16:28:22.534Z,18.85
2019-03-23T16:30:49.382Z,18.97
2019-03-23T16:33:16.281Z,18.87
2019-03-23T16:35:43.287Z,18.80
2019-03-23T16:38:10.309Z,18.57
2019-03-23T16:40:37.295Z,18.46
2019-03-23T16:43:06.247Z,18.41
2019-03-23T16:45:33.404Z,18.45
2019-03-23T16:48:00.386Z,18.54
2019-03-23T16:50:27.378Z,18.48
2019-03-23T16:52:54.368Z,18.31
2019-03-23T16:55:21.252Z,18.13
2019-03-23T16:57:48.420Z,18.01
2019-03-23T17:00:19.188Z,18.04
2019-03-23T17:02:46.337Z,18.00
2019-03-23T17:05:13.253Z,17.87
2019-03-23T17:07:40.132Z,17.74
2019-03-23T17:10:07.598Z,17.70
2019-03-23T17:12:34.465Z,17.55
2019-03-23T17:15:01.970Z,17.51
2019-03-23T17:17:28.988Z,17.44
2019-03-23T17:19:55.898Z,17.46
2019-03-23T17:22:22.915Z,17.29
2019-03-23T17:24:49.806Z,17.23
2019-03-23T17:27:16.697Z,17.10
2019-03-23T17:29:43.698Z,17.03
2019-03-23T17:32:10.686Z,16.96
2019-03-23T17:34:37.670Z,16.71
2019-03-23T17:37:04.635Z,16.76
2019-03-23T17:39:31.505Z,16.90
2019-03-23T17:41:58.439Z,16.77
2019-03-23T17:44:25.230Z,16.40
2019-03-23T17:46:52.104Z,16.34
2019-03-23T17:49:18.943Z,16.41
2019-03-23T17:51:45.932Z,16.43
2019-03-23T17:54:13.125Z,16.35
2019-03-23T17:56:40.046Z,16.33
2019-03-23T17:59:06.916Z,16.35
2019-03-23T18:01:33.983Z,16.40
2019-03-23T18:04:00.914Z,16.21
2019-03-23T18:06:29.575Z,16.14
2019-03-23T18:08:56.397Z,16.05
2019-03-23T18:11:23.356Z,16.00
2019-03-23T18:13:50.479Z,15.69
2019-03-23T18:16:17.326Z,15.62
2019-03-23T18:18:44.212Z,15.84
2019-03-23T18:21:11.290Z,15.96
2019-03-23T19:27:38.586Z,29.79
2019-03-23T19:30:06.334Z,27.85
2019-03-23T19:32:34.213Z,26.91
2019-03-23T19:37:21.473Z,26.22
2019-03-23T19:39:48.494Z,25.04
2019-03-23T19:42:16.500Z,23.49
2019-03-23T19:44:44.282Z,21.86
2019-03-23T19:47:11.122Z,20.36
2019-03-23T19:49:38.090Z,19.17
2019-03-23T19:52:04.972Z,18.18
2019-03-23T19:54:32.163Z,17.36
2019-03-23T19:56:59.057Z,16.68
2019-03-23T19:59:26.304Z,16.20
2019-03-23T20:01:53.369Z,15.82
2019-03-23T20:04:20.609Z,15.55
2019-03-23T20:06:47.454Z,15.30
2019-03-23T20:09:14.771Z,14.99
2019-03-23T20:11:41.458Z,14.81
2019-03-23T20:14:08.478Z,14.63
2019-03-23T20:16:35.321Z,14.50
2019-03-23T20:19:02.141Z,14.34
2019-03-23T20:21:29.327Z,14.30
2019-03-23T20:23:56.179Z,14.24
2019-03-23T20:26:23.040Z,14.16
2019-03-23T20:28:50.135Z,14.10
2019-03-23T20:31:17.185Z,14.06
2019-03-23T20:33:44.079Z,14.01
2019-03-23T20:36:10.901Z,13.94
2019-03-23T20:38:37.795Z,13.85
2019-03-23T20:41:04.749Z,13.81
2019-03-23T20:43:31.966Z,13.78
2019-03-23T20:45:58.973Z,13.69
2019-03-23T20:48:25.873Z,13.61
2019-03-23T20:50:52.632Z,13.51
2019-03-23T20:53:19.468Z,13.38
2019-03-23T20:55:46.642Z,13.27
2019-03-23T20:58:13.559Z,13.18
2019-03-23T21:00:40.586Z,13.07
2019-03-23T21:03:07.777Z,13.00
2019-03-23T21:05:34.746Z,12.94
2019-03-23T21:08:02.004Z,12.89
2019-03-23T21:10:28.875Z,12.85
2019-03-23T21:12:55.738Z,12.88
2019-03-23T21:15:22.648Z,12.94
2019-03-23T21:17:51.481Z,12.98
2019-03-23T21:20:18.393Z,12.97
2019-03-23T21:22:45.471Z,12.96
2019-03-23T21:25:12.763Z,12.98
2019-03-23T21:27:39.737Z,12.96
2019-03-23T21:30:12.180Z,12.91
2019-03-23T21:32:39.178Z,12.86
2019-03-23T21:35:06.351Z,12.79
2019-03-23T21:37:34.902Z,12.72
2019-03-23T21:40:02.153Z,12.66
2019-03-23T21:42:28.959Z,12.61
2019-03-23T21:44:56.128Z,12.56
2019-03-23T21:47:23.048Z,12.51
2019-03-23T21:49:49.867Z,12.50
2019-03-23T21:52:17.050Z,12.46
2019-03-23T21:54:44.183Z,12.46
2019-03-23T21:57:11.057Z,12.49
2019-03-23T21:59:37.814Z,12.51
2019-03-23T22:02:04.800Z,12.47
2019-03-23T22:04:31.642Z,12.43
2019-03-23T22:06:58.409Z,12.40
2019-03-23T22:09:25.239Z,12.38
2019-03-23T22:11:52.174Z,12.34
2019-03-23T22:14:19.080Z,12.33
2019-03-23T22:16:45.948Z,12.26
2019-03-23T22:19:12.893Z,12.24
2019-03-23T22:21:39.833Z,12.24
2019-03-23T22:24:06.648Z,12.23
2019-03-23T22:26:34.020Z,12.22
2019-03-23T22:29:00.845Z,12.18
2019-03-23T22:31:27.616Z,12.13
2019-03-23T22:33:54.502Z,12.09
2019-03-23T22:36:21.372Z,12.04
2019-03-23T22:38:48.457Z,11.94
2019-03-23T22:41:15.507Z,11.98
2019-03-23T22:43:42.356Z,12.00
2019-03-23T22:46:09.466Z,11.98
2019-03-23T22:48:36.325Z,11.98
2019-03-23T22:51:04.875Z,11.95
2019-03-23T22:53:31.840Z,11.90
2019-03-23T22:55:59.042Z,11.87
2019-03-23T22:58:25.771Z,11.83
2019-03-23T23:00:53.542Z,11.72
2019-03-23T23:03:20.508Z,11.62
2019-03-23T23:05:47.389Z,11.59
2019-03-23T23:08:14.293Z,11.57
2019-03-23T23:10:41.303Z,11.63
2019-03-23T23:13:08.414Z,11.68
2019-03-23T23:15:35.535Z,11.74
2019-03-23T23:18:02.430Z,11.71
2019-03-23T23:20:29.327Z,11.71
2019-03-23T23:22:56.382Z,11.65
2019-03-23T23:25:23.339Z,11.67
2019-03-23T23:27:50.091Z,11.73
2019-03-23T23:30:16.977Z,11.77
2019-03-23T23:32:43.826Z,11.77
2019-03-23T23:35:10.983Z,11.75
2019-03-23T23:37:38.141Z,11.76
2019-03-23T23:40:05.514Z,11.82
2019-03-23T23:42:32.657Z,11.86
2019-03-23T23:44:59.485Z,11.88
2019-03-23T23:47:26.273Z,11.93
2019-03-23T23:49:53.342Z,11.94
2019-03-23T23:52:20.243Z,11.97
2019-03-23T23:54:47.116Z,11.95
2019-03-23T23:57:14.569Z,11.98
2019-03-23T23:59:41.449Z,12.02
